createdAt,value
2019-03-17T00:01:57.167Z,13.90
2019-03-17T00:04:15.683Z,13.90
2019-03-17T00:06:42.101Z,13.80
2019-03-17T00:09:08.653Z,13.80
2019-03-17T00:11:34.813Z,13.80
2019-03-17T00:14:00.971Z,13.70
2019-03-17T00:16:27.474Z,13.60
2019-03-17T00:18:53.723Z,13.60
2019-03-17T00:21:19.848Z,13.50
2019-03-17T00:23:46.011Z,13.40
2019-03-17T00:26:12.184Z,13.40
2019-03-17T00:28:38.352Z,13.30
2019-03-17T00:31:04.585Z,13.20
2019-03-17T00:33:30.746Z,13.20
2019-03-17T00:35:56.936Z,13.10
2019-03-17T00:38:23.093Z,13.00
2019-03-17T00:40:49.265Z,12.90
2019-03-17T00:43:15.420Z,12.80
2019-03-17T00:45:41.601Z,12.80
2019-03-17T00:48:07.774Z,12.70
2019-03-17T00:50:33.984Z,12.60
2019-03-17T00:53:00.139Z,12.60
2019-03-17T00:55:32.809Z,12.50
2019-03-17T00:57:59.780Z,12.50
2019-03-17T01:00:26.090Z,12.40
2019-03-17T01:02:52.396Z,12.30
2019-03-17T01:05:19.006Z,12.30
2019-03-17T01:07:45.247Z,12.20
2019-03-17T01:10:12.917Z,12.20
2019-03-17T01:12:39.059Z,12.10
2019-03-17T01:15:06.435Z,12.10
2019-03-17T01:17:32.564Z,12.00
2019-03-17T01:19:58.739Z,12.00
2019-03-17T01:22:24.899Z,12.00
2019-03-17T01:24:51.140Z,11.90
2019-03-17T01:27:17.333Z,11.90
2019-03-17T01:29:43.533Z,11.80
2019-03-17T01:32:09.661Z,11.80
2019-03-17T01:34:36.286Z,11.80
2019-03-17T01:37:02.443Z,11.70
2019-03-17T01:39:28.641Z,11.70
2019-03-17T01:41:55.087Z,11.60
2019-03-17T01:44:21.859Z,11.60
2019-03-17T01:46:48.006Z,11.60
2019-03-17T01:49:14.205Z,11.50
2019-03-17T01:51:40.399Z,11.50
2019-03-17T01:54:06.604Z,11.40
2019-03-17T01:56:32.820Z,11.40
2019-03-17T01:58:59.247Z,11.40
2019-03-17T02:01:25.442Z,11.30
2019-03-17T02:03:51.604Z,11.30
2019-03-17T02:06:17.780Z,11.20
2019-03-17T02:08:43.930Z,11.20
2019-03-17T02:11:10.100Z,11.20
2019-03-17T02:13:36.275Z,11.10
2019-03-17T02:16:02.532Z,11.10
2019-03-17T02:18:28.681Z,11.00
2019-03-17T02:20:55.260Z,11.00
2019-03-17T02:23:21.390Z,10.90
2019-03-17T02:25:47.582Z,10.90
2019-03-17T02:28:13.746Z,10.80
2019-03-17T02:30:40.074Z,10.80
2019-03-17T02:33:06.232Z,10.80
2019-03-17T02:35:39.581Z,10.80
2019-03-17T02:38:00.464Z,10.70
2019-03-17T02:40:26.609Z,10.70
2019-03-17T02:42:52.749Z,10.70
2019-03-17T02:45:18.933Z,10.70
2019-03-17T02:47:45.079Z,10.60
2019-03-17T02:50:11.335Z,10.60
2019-03-17T02:52:37.494Z,10.60
2019-03-17T02:55:07.767Z,10.60
2019-03-17T02:57:33.913Z,10.60
2019-03-17T03:00:00.050Z,10.50
2019-03-17T03:02:26.209Z,10.50
2019-03-17T03:04:52.375Z,10.50
2019-03-17T03:07:18.567Z,10.50
2019-03-17T03:09:44.746Z,10.50
2019-03-17T03:12:10.932Z,10.50
2019-03-17T03:14:37.152Z,10.50
2019-03-17T03:17:03.335Z,10.50
2019-03-17T03:19:31.102Z,10.50
2019-03-17T03:21:57.283Z,10.50
2019-03-17T03:24:23.434Z,10.40
2019-03-17T03:26:49.626Z,10.40
2019-03-17T03:29:15.773Z,10.40
2019-03-17T03:31:42.149Z,10.40
2019-03-17T03:34:08.306Z,10.40
2019-03-17T03:36:34.509Z,10.30
2019-03-17T03:39:00.658Z,10.30
2019-03-17T03:41:27.078Z,10.30
2019-03-17T03:43:53.232Z,10.20
2019-03-17T03:46:20.275Z,10.20
2019-03-17T03:48:46.427Z,10.10
2019-03-17T03:51:12.610Z,10.10
2019-03-17T03:53:38.750Z,10.10
2019-03-17T03:56:04.900Z,10.10
2019-03-17T03:58:31.062Z,10.00
2019-03-17T04:00:57.298Z,10.00
2019-03-17T04:03:23.443Z,10.00
2019-03-17T04:05:49.663Z,10.00
2019-03-17T04:08:15.864Z,10.00
2019-03-17T04:10:42.092Z,9.90
2019-03-17T04:13:13.788Z,9.90
2019-03-17T04:15:39.991Z,9.90
2019-03-17T04:18:06.219Z,10.00
2019-03-17T04:20:32.341Z,9.90
2019-03-17T04:22:58.510Z,9.90
2019-03-17T04:25:24.672Z,9.90
2019-03-17T04:27:50.833Z,9.90
2019-03-17T04:30:17.031Z,9.90
2019-03-17T04:32:43.186Z,9.90
2019-03-17T04:35:09.317Z,9.80
2019-03-17T04:37:35.527Z,9.80
2019-03-17T04:40:02.094Z,9.80
2019-03-17T04:42:28.266Z,9.70
2019-03-17T04:44:54.403Z,9.70
2019-03-17T04:47:20.576Z,9.70
2019-03-17T04:49:46.716Z,9.60
2019-03-17T04:52:12.886Z,9.60
2019-03-17T04:54:39.055Z,9.50
2019-03-17T04:57:05.232Z,9.50
2019-03-17T04:59:31.376Z,9.50
2019-03-17T05:01:57.593Z,9.40
2019-03-17T05:04:23.729Z,9.40
2019-03-17T05:06:52.833Z,9.40
2019-03-17T05:09:18.242Z,9.30
2019-03-17T05:11:44.770Z,9.30
2019-03-17T05:14:10.907Z,9.30
2019-03-17T05:16:37.061Z,9.20
2019-03-17T05:19:03.574Z,9.20
2019-03-17T05:21:29.728Z,9.20
2019-03-17T05:23:55.938Z,9.10
2019-03-17T05:26:22.077Z,9.10
2019-03-17T05:28:48.623Z,9.10
2019-03-17T05:31:14.880Z,9.10
2019-03-17T05:33:41.036Z,9.10
2019-03-17T05:36:07.186Z,9.10
2019-03-17T05:38:33.371Z,9.10
2019-03-17T05:40:59.554Z,9.10
2019-03-17T05:43:26.034Z,9.10
2019-03-17T05:45:52.491Z,9.10
2019-03-17T05:48:18.665Z,9.20
2019-03-17T05:50:44.841Z,9.20
2019-03-17T05:53:17.422Z,9.30
2019-03-17T05:55:43.582Z,9.40
2019-03-17T05:58:09.790Z,9.50
2019-03-17T06:00:36.321Z,9.60
2019-03-17T06:03:02.539Z,9.70
2019-03-17T06:05:28.677Z,9.80
2019-03-17T06:07:54.850Z,9.90
2019-03-17T06:10:21.387Z,10.00
2019-03-17T06:12:47.560Z,10.20
2019-03-17T06:15:13.695Z,10.40
2019-03-17T06:17:39.887Z,10.50
2019-03-17T06:20:10.563Z,10.80
2019-03-17T06:22:36.794Z,11.00
2019-03-17T06:25:06.338Z,11.20
2019-03-17T06:27:32.487Z,11.40
2019-03-17T06:29:58.691Z,11.50
2019-03-17T06:32:24.952Z,11.80
2019-03-17T06:34:51.110Z,12.00
2019-03-17T06:37:17.558Z,12.20
2019-03-17T06:39:43.723Z,12.50
2019-03-17T06:42:09.888Z,12.80
2019-03-17T06:44:36.078Z,13.10
2019-03-17T06:47:02.267Z,13.40
2019-03-17T06:49:28.434Z,13.70
2019-03-17T06:51:58.838Z,14.10
2019-03-17T06:54:22.643Z,14.50
2019-03-17T06:56:48.797Z,15.00
2019-03-17T06:59:17.460Z,15.40
2019-03-17T07:01:43.063Z,15.80
2019-03-17T07:04:09.223Z,16.30
2019-03-17T07:06:35.373Z,16.80
2019-03-17T07:09:01.681Z,17.30
2019-03-17T07:11:29.429Z,17.90
2019-03-17T07:13:55.591Z,18.30
2019-03-17T07:16:21.818Z,18.90
2019-03-17T07:18:47.969Z,19.90
2019-03-17T07:21:14.111Z,19.90
2019-03-17T07:23:40.295Z,20.40
2019-03-17T07:26:07.046Z,20.90
2019-03-17T07:28:33.245Z,21.40
2019-03-17T07:30:59.452Z,21.90
2019-03-17T07:33:25.624Z,22.40
2019-03-17T07:35:51.770Z,22.80
2019-03-17T07:38:17.950Z,23.30
2019-03-17T07:40:44.098Z,23.60
2019-03-17T07:43:10.274Z,24.00
2019-03-17T07:45:36.834Z,24.40
2019-03-17T07:48:03.010Z,24.90
2019-03-17T07:50:29.214Z,25.50
2019-03-17T07:52:55.382Z,26.10
2019-03-17T07:55:21.554Z,26.70
2019-03-17T07:57:47.692Z,27.50
2019-03-17T08:00:14.267Z,28.10
2019-03-17T08:02:40.464Z,28.70
2019-03-17T08:05:11.357Z,29.30
2019-03-17T08:07:37.676Z,29.70
2019-03-17T08:10:12.008Z,30.30
2019-03-17T08:12:39.325Z,30.80
2019-03-17T08:15:10.244Z,31.20
2019-03-17T08:17:36.552Z,31.70
2019-03-17T08:20:05.276Z,32.10
2019-03-17T08:22:31.434Z,32.40
2019-03-17T08:24:57.793Z,32.80
2019-03-17T08:27:23.970Z,33.10
2019-03-17T08:29:50.172Z,33.30
2019-03-17T08:32:16.377Z,33.40
2019-03-17T08:34:42.564Z,33.50
2019-03-17T08:37:08.978Z,33.40
2019-03-17T08:39:35.136Z,33.40
2019-03-17T08:42:01.292Z,33.30
2019-03-17T08:44:27.532Z,33.10
2019-03-17T08:46:53.663Z,33.00
2019-03-17T08:49:19.830Z,32.90
2019-03-17T08:51:46.024Z,32.70
2019-03-17T08:54:12.195Z,32.70
2019-03-17T08:56:38.373Z,32.70
2019-03-17T08:59:04.525Z,32.60
2019-03-17T09:01:30.714Z,32.70
2019-03-17T09:03:56.906Z,32.70
2019-03-17T09:06:23.078Z,32.70
2019-03-17T09:08:49.228Z,32.60
2019-03-17T09:11:15.388Z,32.50
2019-03-17T09:13:41.535Z,32.40
2019-03-17T09:16:07.734Z,32.40
2019-03-17T09:18:33.879Z,32.20
2019-03-17T09:21:00.051Z,32.10
2019-03-17T09:23:26.204Z,32.00
2019-03-17T09:25:52.386Z,31.80
2019-03-17T09:28:18.539Z,31.80
2019-03-17T09:30:44.790Z,31.70
2019-03-17T09:33:10.937Z,31.60
2019-03-17T09:35:37.180Z,31.60
2019-03-17T09:38:03.675Z,31.70
2019-03-17T09:40:29.950Z,31.80
2019-03-17T09:42:56.222Z,31.90
2019-03-17T09:45:22.706Z,31.90
2019-03-17T09:47:48.857Z,31.90
2019-03-17T09:50:19.100Z,31.90
2019-03-17T09:52:45.595Z,31.70
2019-03-17T09:55:11.785Z,31.60
2019-03-17T09:57:37.944Z,31.50
2019-03-17T10:00:14.933Z,31.30
2019-03-17T10:02:41.080Z,31.40
2019-03-17T10:05:08.778Z,31.40
2019-03-17T10:07:35.294Z,31.50
2019-03-17T10:10:02.171Z,31.70
2019-03-17T10:12:28.694Z,31.90
2019-03-17T10:14:54.836Z,32.00
2019-03-17T10:17:21.012Z,32.10
2019-03-17T10:19:47.183Z,32.20
2019-03-17T10:22:13.408Z,32.20
2019-03-17T10:24:40.148Z,32.30
2019-03-17T10:27:06.305Z,32.40
2019-03-17T10:29:32.452Z,32.40
2019-03-17T10:31:58.885Z,32.50
2019-03-17T10:34:25.300Z,32.70
2019-03-17T10:36:51.836Z,32.80
2019-03-17T10:39:20.492Z,32.90
2019-03-17T10:41:46.994Z,32.80
2019-03-17T10:44:13.175Z,32.70
2019-03-17T10:46:39.350Z,32.50
2019-03-17T10:49:05.524Z,32.30
2019-03-17T10:51:31.754Z,32.00
2019-03-17T10:53:57.910Z,31.80
2019-03-17T10:56:24.121Z,31.70
2019-03-17T10:58:50.269Z,31.60
2019-03-17T11:01:16.461Z,31.60
2019-03-17T11:03:42.630Z,31.60
2019-03-17T11:06:08.889Z,31.60
2019-03-17T11:08:37.090Z,31.60
2019-03-17T11:11:16.889Z,31.50
2019-03-17T11:13:43.366Z,31.40
2019-03-17T11:16:11.421Z,31.20
2019-03-17T11:18:40.885Z,31.10
2019-03-17T11:21:07.164Z,31.00
2019-03-17T11:23:33.355Z,30.80
2019-03-17T11:25:59.615Z,30.70
2019-03-17T11:28:25.838Z,30.60
2019-03-17T11:30:59.391Z,30.60
2019-03-17T11:33:25.760Z,30.60
2019-03-17T11:35:51.892Z,30.60
2019-03-17T11:38:18.077Z,30.70
2019-03-17T11:40:44.529Z,30.80
2019-03-17T11:43:10.730Z,30.90
2019-03-17T11:45:37.262Z,31.10
2019-03-17T11:48:09.295Z,31.20
2019-03-17T11:50:35.438Z,31.40
2019-03-17T11:53:04.226Z,31.40
2019-03-17T11:55:31.852Z,31.50
2019-03-17T11:58:01.380Z,31.60
2019-03-17T12:00:31.330Z,31.60
2019-03-17T12:02:57.513Z,31.60
2019-03-17T12:05:23.651Z,31.60
2019-03-17T12:07:49.834Z,31.60
2019-03-17T12:10:21.555Z,31.60
2019-03-17T12:12:48.001Z,31.50
2019-03-17T12:15:29.704Z,31.40
2019-03-17T12:17:55.870Z,31.30
2019-03-17T12:20:23.996Z,31.20
2019-03-17T12:22:50.184Z,31.10
2019-03-17T12:25:17.614Z,30.90
2019-03-17T12:27:43.825Z,30.90
2019-03-17T12:30:25.356Z,30.80
2019-03-17T12:32:52.824Z,30.60
2019-03-17T12:35:19.061Z,30.50
2019-03-17T12:37:45.457Z,30.30
2019-03-17T12:40:11.710Z,30.20
2019-03-17T12:42:38.130Z,30.10
2019-03-17T12:45:06.695Z,30.00
2019-03-17T12:47:32.838Z,30.00
2019-03-17T12:49:59.300Z,30.00
2019-03-17T12:52:25.490Z,29.90
2019-03-17T12:54:51.758Z,29.90
2019-03-17T12:57:18.005Z,29.80
2019-03-17T12:59:44.163Z,29.70
2019-03-17T13:02:10.664Z,29.60
2019-03-17T13:04:36.837Z,29.50
2019-03-17T13:07:03.395Z,29.40
2019-03-17T13:09:29.514Z,29.30
2019-03-17T13:11:55.758Z,29.20
2019-03-17T13:14:21.942Z,29.00
2019-03-17T13:16:55.256Z,28.80
2019-03-17T13:19:21.478Z,28.50
2019-03-17T13:21:48.021Z,28.30
2019-03-17T13:24:14.187Z,28.10
2019-03-17T13:26:40.361Z,27.90
2019-03-17T13:29:06.557Z,27.80
2019-03-17T13:31:39.174Z,27.60
2019-03-17T13:34:11.795Z,27.50
2019-03-17T13:36:37.983Z,27.20
2019-03-17T13:39:10.706Z,27.00
2019-03-17T13:41:36.889Z,26.80
2019-03-17T13:44:10.308Z,26.50
2019-03-17T13:46:36.457Z,26.20
2019-03-17T13:49:02.581Z,26.00
2019-03-17T13:51:28.755Z,25.90
2019-03-17T13:53:54.922Z,25.80
2019-03-17T13:56:21.161Z,25.70
2019-03-17T13:58:47.351Z,25.60
2019-03-17T14:01:13.886Z,25.50
2019-03-17T14:03:40.635Z,25.40
2019-03-17T14:06:06.777Z,25.20
2019-03-17T14:08:32.976Z,25.00
2019-03-17T14:10:59.123Z,24.90
2019-03-17T14:13:25.342Z,24.80
2019-03-17T14:15:51.543Z,24.70
2019-03-17T14:18:17.699Z,24.60
2019-03-17T14:20:44.270Z,24.60
2019-03-17T14:23:10.426Z,24.50
2019-03-17T14:25:37.017Z,24.50
2019-03-17T14:28:03.197Z,24.40
2019-03-17T14:30:29.488Z,24.20
2019-03-17T14:32:55.656Z,24.10
2019-03-17T14:35:22.171Z,23.90
2019-03-17T14:37:48.290Z,23.80
2019-03-17T14:40:15.482Z,23.70
2019-03-17T14:42:43.572Z,23.60
2019-03-17T14:45:14.532Z,23.40
2019-03-17T14:47:40.687Z,23.30
2019-03-17T14:50:13.196Z,23.20
2019-03-17T14:52:39.335Z,23.10
2019-03-17T14:55:06.305Z,22.90
2019-03-17T14:57:32.444Z,22.80
2019-03-17T14:59:58.611Z,22.70
2019-03-17T15:02:24.780Z,22.60
2019-03-17T15:04:50.966Z,22.50
2019-03-17T15:07:17.460Z,22.50
2019-03-17T15:09:43.617Z,22.40
2019-03-17T15:12:09.787Z,22.30
2019-03-17T15:14:36.368Z,22.20
2019-03-17T15:17:02.511Z,22.10
2019-03-17T15:19:28.679Z,22.00
2019-03-17T15:21:54.879Z,21.80
2019-03-17T15:24:21.396Z,21.60
2019-03-17T15:26:47.580Z,21.40
2019-03-17T15:29:13.756Z,21.20
2019-03-17T15:31:39.977Z,21.00
2019-03-17T15:34:06.119Z,20.80
2019-03-17T15:36:32.320Z,20.50
2019-03-17T15:38:58.490Z,20.30
2019-03-17T15:41:24.944Z,20.00
2019-03-17T15:43:51.073Z,19.70
2019-03-17T15:46:17.509Z,19.40
2019-03-17T15:48:43.950Z,19.10
2019-03-17T15:51:19.510Z,18.80
2019-03-17T15:53:38.215Z,18.40
2019-03-17T15:56:04.385Z,18.10
2019-03-17T16:00:57.788Z,17.40
2019-03-17T16:03:23.933Z,17.10
2019-03-17T16:05:50.096Z,16.80
2019-03-17T16:08:16.256Z,16.50
2019-03-17T16:10:42.430Z,16.20
2019-03-17T16:13:08.566Z,15.90
2019-03-17T16:15:34.747Z,15.60
2019-03-17T16:18:00.904Z,15.30
2019-03-17T16:20:27.339Z,15.00
2019-03-17T16:22:53.486Z,14.80
2019-03-17T16:25:24.996Z,14.50
2019-03-17T16:27:51.229Z,14.30
2019-03-17T16:30:22.242Z,14.10
2019-03-17T16:32:48.478Z,13.80
2019-03-17T16:35:14.843Z,13.60
2019-03-17T16:37:41.000Z,13.40
2019-03-17T16:40:38.270Z,13.20
2019-03-17T16:43:04.525Z,13.10
2019-03-17T16:45:30.703Z,12.90
2019-03-17T16:47:56.946Z,12.50
2019-03-17T16:50:23.323Z,12.60
2019-03-17T16:52:49.451Z,12.50
2019-03-17T16:55:15.913Z,12.50
2019-03-17T16:57:42.140Z,12.40
2019-03-17T17:00:19.122Z,12.30
2019-03-17T17:02:46.306Z,12.20
2019-03-17T17:05:14.754Z,12.10
2019-03-17T17:07:41.179Z,12.10
2019-03-17T17:10:22.028Z,12.10
2019-03-17T17:12:48.196Z,12.00
2019-03-17T17:15:27.188Z,12.00
2019-03-17T17:17:53.332Z,11.90
2019-03-17T17:20:24.412Z,11.90
2019-03-17T17:22:51.190Z,11.90
2019-03-17T17:25:17.677Z,11.80
2019-03-17T17:27:43.839Z,11.80
2019-03-17T17:30:13.577Z,11.80
2019-03-17T17:32:39.933Z,11.70
2019-03-17T17:35:06.315Z,11.70
2019-03-17T17:37:32.903Z,11.60
2019-03-17T17:39:59.070Z,11.60
2019-03-17T17:42:25.303Z,11.60
2019-03-17T17:44:51.441Z,11.60
2019-03-17T17:47:17.604Z,11.60
2019-03-17T17:49:43.807Z,11.50
2019-03-17T17:52:10.007Z,11.50
2019-03-17T17:54:36.143Z,11.50
2019-03-17T17:57:02.728Z,11.50
2019-03-17T17:59:28.887Z,11.50
2019-03-17T18:01:55.059Z,11.50
2019-03-17T18:04:21.523Z,11.50
2019-03-17T18:06:47.683Z,11.50
2019-03-17T18:09:13.837Z,11.50
2019-03-17T18:11:46.243Z,11.60
2019-03-17T18:14:12.374Z,11.50
2019-03-17T18:16:41.105Z,11.60
2019-03-17T18:19:06.587Z,11.60
2019-03-17T18:21:32.756Z,11.60
2019-03-17T18:23:59.285Z,11.60
2019-03-17T18:26:25.742Z,11.60
2019-03-17T18:28:51.879Z,11.70
2019-03-17T18:31:18.401Z,11.60
2019-03-17T18:33:44.560Z,11.60
2019-03-17T18:36:10.763Z,11.60
2019-03-17T18:38:37.159Z,11.60
2019-03-17T18:41:03.285Z,11.60
2019-03-17T18:43:29.467Z,11.60
2019-03-17T18:45:55.606Z,11.60
2019-03-17T18:48:22.139Z,11.60
2019-03-17T18:50:48.300Z,11.50
2019-03-17T18:53:14.480Z,11.50
2019-03-17T18:55:40.610Z,11.50
2019-03-17T18:58:06.815Z,11.50
2019-03-17T19:00:32.955Z,11.50
2019-03-17T19:02:59.143Z,11.50
2019-03-17T19:05:25.305Z,11.50
2019-03-17T19:07:51.506Z,11.50
2019-03-17T19:10:19.165Z,11.40
2019-03-17T19:12:46.402Z,11.40
2019-03-17T19:15:20.261Z,11.40
2019-03-17T19:17:46.640Z,11.40
2019-03-17T19:20:14.679Z,11.40
2019-03-17T19:22:40.902Z,11.40
2019-03-17T19:25:13.603Z,11.40
2019-03-17T19:27:39.786Z,11.40
2019-03-17T19:30:13.232Z,11.40
2019-03-17T19:32:39.568Z,11.40
2019-03-17T19:35:06.519Z,11.40
2019-03-17T19:37:32.692Z,11.40
2019-03-17T19:40:00.957Z,11.40
2019-03-17T19:42:26.938Z,11.50
2019-03-17T19:44:53.315Z,11.50
2019-03-17T19:47:19.447Z,11.40
2019-03-17T19:49:46.231Z,11.40
2019-03-17T19:52:12.719Z,11.40
2019-03-17T19:54:38.877Z,11.40
2019-03-17T19:57:05.026Z,11.40
2019-03-17T19:59:31.198Z,11.40
2019-03-17T20:01:57.354Z,11.40
2019-03-17T20:04:31.033Z,11.40
2019-03-17T20:06:51.612Z,11.40
2019-03-17T20:09:18.074Z,11.40
2019-03-17T20:11:44.240Z,11.40
2019-03-17T20:14:10.425Z,11.40
2019-03-17T20:16:36.580Z,11.40
2019-03-17T20:19:02.762Z,11.40
2019-03-17T20:21:29.017Z,11.40
2019-03-17T20:23:55.222Z,11.40
2019-03-17T20:26:21.342Z,11.40
2019-03-17T20:28:47.546Z,11.30
2019-03-17T20:31:13.995Z,11.40
2019-03-17T20:33:40.150Z,11.40
2019-03-17T20:36:06.305Z,11.30
2019-03-17T20:38:32.791Z,11.30
2019-03-17T20:40:59.232Z,11.30
2019-03-17T20:43:34.780Z,11.30
2019-03-17T20:45:53.478Z,11.30
2019-03-17T20:48:19.756Z,11.30
2019-03-17T20:50:46.317Z,11.30
2019-03-17T20:53:12.781Z,11.30
2019-03-17T20:55:38.926Z,11.30
2019-03-17T20:58:05.442Z,11.30
2019-03-17T21:00:31.636Z,11.30
2019-03-17T21:02:57.783Z,11.30
2019-03-17T21:05:24.253Z,11.30
2019-03-17T21:07:50.410Z,11.30
2019-03-17T21:10:16.600Z,11.30
2019-03-17T21:12:42.735Z,11.30
2019-03-17T21:15:11.495Z,11.30
2019-03-17T21:17:37.740Z,11.30
2019-03-17T21:20:09.749Z,11.30
2019-03-17T21:22:35.906Z,11.30
2019-03-17T21:25:04.462Z,11.30
2019-03-17T21:27:30.702Z,11.20
2019-03-17T21:29:56.865Z,11.20
2019-03-17T21:32:23.108Z,11.20
2019-03-17T21:34:49.284Z,11.20
2019-03-17T21:37:15.441Z,11.20
2019-03-17T21:39:41.595Z,11.20
2019-03-17T21:42:07.743Z,11.20
2019-03-17T21:44:33.976Z,11.20
2019-03-17T21:47:00.112Z,11.10
2019-03-17T21:49:26.274Z,11.20
2019-03-17T21:51:52.415Z,11.10
2019-03-17T21:54:18.618Z,11.10
2019-03-17T21:56:44.725Z,11.10
2019-03-17T21:59:10.895Z,11.10
2019-03-17T22:01:37.042Z,11.10
2019-03-17T22:04:03.293Z,11.10
2019-03-17T22:06:29.462Z,11.10
2019-03-17T22:08:55.636Z,11.10
2019-03-17T22:11:21.790Z,11.10
2019-03-17T22:13:48.348Z,11.10
2019-03-17T22:16:14.491Z,11.10
2019-03-17T22:18:40.647Z,11.10
2019-03-17T22:21:06.833Z,11.10
2019-03-17T22:23:32.969Z,11.10
2019-03-17T22:25:59.417Z,11.10
2019-03-17T22:28:25.549Z,11.10
2019-03-17T22:30:51.735Z,11.10
2019-03-17T22:33:17.907Z,11.10
2019-03-17T22:35:44.082Z,11.10
2019-03-17T22:38:10.244Z,11.10
2019-03-17T22:40:36.819Z,11.10
2019-03-17T22:43:03.020Z,11.00
2019-03-17T22:45:29.201Z,11.00
2019-03-17T22:47:55.352Z,11.00
2019-03-17T22:50:21.532Z,11.00
2019-03-17T22:52:47.655Z,11.00
2019-03-17T22:55:13.946Z,11.00
2019-03-17T22:57:40.090Z,11.00
2019-03-17T23:00:35.206Z,11.00
2019-03-17T23:03:01.344Z,11.00
2019-03-17T23:05:27.528Z,11.00
2019-03-17T23:07:53.675Z,11.00
2019-03-17T23:10:19.847Z,11.00
2019-03-17T23:12:46.336Z,11.00
2019-03-17T23:15:12.776Z,11.00
2019-03-17T23:17:39.054Z,11.00
2019-03-17T23:20:13.333Z,11.00
2019-03-17T23:22:39.846Z,11.00
2019-03-17T23:25:08.670Z,11.00
2019-03-17T23:27:35.086Z,11.00
2019-03-17T23:30:01.236Z,10.90
2019-03-17T23:32:27.461Z,11.00
2019-03-17T23:34:53.617Z,11.00
2019-03-17T23:37:19.778Z,11.00
2019-03-17T23:39:45.920Z,11.00
2019-03-17T23:42:12.096Z,11.00
2019-03-17T23:44:48.428Z,11.00
2019-03-17T23:47:06.318Z,11.00
2019-03-17T23:49:32.447Z,10.90
2019-03-17T23:51:58.633Z,11.00
2019-03-17T23:54:24.785Z,10.90
2019-03-17T23:56:50.945Z,10.90
2019-03-17T23:59:17.097Z,10.90
